Time;durP1;ratioP1;P1;durP2;ratioP2;P2;SDS_P1;SDS_P2;PMS_P1;PMS_P2;Temp;Humidity;BMP_temperature;BMP_pressure;BME280_temperature;BME280_humidity;BME280_pressure;Samples;Min_cycle;Max_cycle;Signal;HPM_P1;HPM_P2
2022/03/19 00:00:23;;;;;;;0.98;0.98;;;;;;;4.58;78.56;98971.06;29395;199;63009;-56
2022/03/19 00:00:55;;;;;;;0.60;0.60;;;;;;;4.57;78.45;98966.72;29394;216;63998;-56
2022/03/19 00:01:26;;;;;;;0.50;0.50;;;;;;;4.57;78.51;98960.50;29394;305;64013;-57
2022/03/19 00:01:57;;;;;;;0.60;0.60;;;;;;;4.56;78.60;98967.75;29395;229;63004;-57
2022/03/19 00:02:28;;;;;;;0.50;0.50;;;;;;;4.54;78.60;98972.50;29395;230;63009;-56
2022/03/19 00:03:00;;;;;;;0.60;0.60;;;;;;;4.54;78.50;98968.97;29395;374;63004;-57
2022/03/19 00:03:31;;;;;;;0.60;0.60;;;;;;;4.53;78.83;98968.16;29395;222;63009;-56
2022/03/19 00:04:03;;;;;;;0.60;0.60;;;;;;;4.50;79.07;98973.97;29395;321;63004;-57
2022/03/19 00:04:35;;;;;;;0.60;0.60;;;;;;;4.48;79.21;98967.13;29395;202;63008;-56
2022/03/19 00:05:08;;;;;;;1.08;1.08;;;;;;;4.47;79.18;98966.31;29395;219;63005;-63
2022/03/19 00:05:40;;;;;;;0.60;0.60;;;;;;;4.51;78.79;98970.22;29394;282;64014;-60
2022/03/19 00:06:11;;;;;;;0.60;0.60;;;;;;;4.51;78.54;98972.06;29395;238;63009;-56
2022/03/19 00:06:48;;;;;;;0.60;0.60;;;;;;;4.49;78.61;98969.63;29395;204;63009;-56
2022/03/19 00:07:20;;;;;;;0.60;0.60;;;;;;;4.48;78.51;98967.97;29394;232;64009;-59
2022/03/19 00:07:52;;;;;;;1.92;1.92;;;;;;;4.49;78.71;98968.78;29394;210;64013;-56
2022/03/19 00:08:24;;;;;;;0.60;0.60;;;;;;;4.48;78.87;98976.03;29395;210;63005;-57
2022/03/19 00:08:56;;;;;;;0.60;0.60;;;;;;;4.47;78.87;98974.38;29395;224;63009;-57
2022/03/19 00:09:31;;;;;;;0.60;0.60;;;;;;;4.50;78.70;98981.19;29395;239;63014;-58
2022/03/19 00:10:04;;;;;;;0.60;0.60;;;;;;;4.49;78.84;98975.00;29394;244;64013;-57
2022/03/19 00:10:41;;;;;;;0.60;0.60;;;;;;;4.49;78.79;98977.69;29395;219;63010;-57
2022/03/19 00:11:14;;;;;;;0.60;0.60;;;;;;;4.48;78.71;98978.72;29395;206;63009;-58
2022/03/19 00:11:48;;;;;;;0.60;0.60;;;;;;;4.49;78.98;98974.16;29395;199;63004;-58
2022/03/19 00:12:20;;;;;;;1.40;1.40;;;;;;;4.48;78.70;98973.34;29395;231;63008;-59
2022/03/19 00:12:54;;;;;;;0.60;0.60;;;;;;;4.48;78.77;98973.34;29394;227;64009;-57
2022/03/19 00:13:25;;;;;;;0.60;0.60;;;;;;;4.47;78.74;98971.69;29395;197;63009;-56
2022/03/19 00:13:57;;;;;;;0.57;0.57;;;;;;;4.48;78.94;98975.19;29395;213;63009;-60
2022/03/19 00:14:28;;;;;;;0.60;0.60;;;;;;;4.48;78.92;98970.66;29395;224;63009;-56
2022/03/19 00:15:00;;;;;;;0.60;0.60;;;;;;;4.47;79.04;98982.44;29395;216;63005;-58
2022/03/19 00:15:31;;;;;;;0.60;0.60;;;;;;;4.49;78.90;98975.00;29395;222;63009;-56
2022/03/19 00:16:03;;;;;;;0.60;0.60;;;;;;;4.47;78.52;98977.06;29395;210;63005;-56
2022/03/19 00:16:37;;;;;;;0.50;0.50;;;;;;;4.47;78.60;98979.75;29395;215;63009;-56
2022/03/19 00:17:12;;;;;;;0.82;0.82;;;;;;;4.47;78.60;98973.53;29394;213;64009;-57
2022/03/19 00:17:43;;;;;;;0.60;0.60;;;;;;;4.47;78.70;98974.38;29395;214;63009;-57
2022/03/19 00:18:16;;;;;;;0.60;0.60;;;;;;;4.48;78.72;98976.03;29395;230;63004;-58
2022/03/19 00:18:48;;;;;;;0.60;0.60;;;;;;;4.50;78.49;98973.13;29395;248;63009;-57
2022/03/19 00:19:19;;;;;;;0.60;0.60;;;;;;;4.55;78.49;98974.16;29395;296;63004;-56
2022/03/19 00:19:51;;;;;;;0.60;0.60;;;;;;;4.60;77.93;98976.25;29394;202;64013;-59
2022/03/19 00:20:25;;;;;;;0.60;0.60;;;;;;;4.65;77.59;98979.97;29395;221;63005;-56
2022/03/19 00:20:56;;;;;;;0.60;0.60;;;;;;;4.64;77.53;98978.31;29395;203;63009;-57
2022/03/19 00:21:28;;;;;;;0.60;0.60;;;;;;;4.63;77.49;98976.66;29395;226;63001;-58
2022/03/19 00:21:59;;;;;;;0.60;0.60;;;;;;;4.61;77.46;98978.72;29395;197;63009;-57
2022/03/19 00:22:31;;;;;;;0.60;0.60;;;;;;;4.66;77.53;98970.88;29395;250;63017;-56
2022/03/19 00:23:04;;;;;;;0.60;0.60;;;;;;;4.67;77.33;98977.09;29395;240;63009;-57
2022/03/19 00:23:36;;;;;;;0.50;0.50;;;;;;;4.65;77.47;98974.59;29395;246;63005;-58
2022/03/19 00:24:09;;;;;;;0.60;0.60;;;;;;;4.68;76.98;98974.19;29395;285;63009;-57
2022/03/19 00:24:41;;;;;;;0.60;0.60;;;;;;;4.69;77.02;98981.22;29395;297;63004;-57
2022/03/19 00:25:12;;;;;;;0.60;0.60;;;;;;;4.66;77.03;98981.63;29394;212;64013;-57
2022/03/19 00:25:43;;;;;;;0.60;0.60;;;;;;;4.66;77.14;98980.81;29395;210;63004;-61
2022/03/19 00:26:15;;;;;;;0.50;0.50;;;;;;;4.62;77.08;98980.37;29395;211;63009;-60
2022/03/19 00:26:46;;;;;;;0.60;0.60;;;;;;;4.60;77.37;98966.31;29395;228;63004;-56
2022/03/19 00:27:17;;;;;;;0.60;0.60;;;;;;;4.59;77.32;98969.22;29395;204;63008;-56
2022/03/19 00:27:51;;;;;;;0.50;0.50;;;;;;;4.54;77.47;98969.81;29395;212;63009;-61
2022/03/19 00:28:23;;;;;;;0.60;0.60;;;;;;;4.51;77.66;98972.91;29395;219;63009;-59
2022/03/19 00:28:54;;;;;;;0.60;0.60;;;;;;;4.49;77.76;98971.47;29394;240;64009;-57
2022/03/19 00:29:25;;;;;;;0.50;0.50;;;;;;;4.46;77.84;98969.19;29395;222;63009;-56
2022/03/19 00:29:56;;;;;;;3.25;3.15;;;;;;;4.44;78.23;98972.09;29395;269;63005;-57
2022/03/19 00:30:28;;;;;;;0.50;0.50;;;;;;;4.43;78.18;98969.59;29395;259;63009;-61
2022/03/19 00:31:03;;;;;;;0.50;0.50;;;;;;;4.41;78.43;98977.88;29394;213;64009;-57
2022/03/19 00:31:35;;;;;;;0.80;0.80;;;;;;;4.40;78.70;98980.75;29395;196;63009;-56
2022/03/19 00:32:07;;;;;;;0.50;0.50;;;;;;;4.38;78.80;98981.78;29395;225;63004;-57
2022/03/19 00:32:39;;;;;;;1.50;1.50;;;;;;;4.45;78.54;98979.13;29395;198;63009;-57
2022/03/19 00:33:12;;;;;;;0.60;0.60;;;;;;;4.51;78.02;98977.44;29395;237;63004;-57
2022/03/19 00:33:44;;;;;;;0.60;0.60;;;;;;;4.51;77.77;98970.22;29395;240;63009;-62
2022/03/19 00:34:16;;;;;;;0.60;0.60;;;;;;;4.49;77.83;98969.63;29395;236;63014;-60
2022/03/19 00:34:48;;;;;;;0.70;0.70;;;;;;;4.48;77.90;98970.66;29395;202;63008;-57
2022/03/19 00:35:19;;;;;;;0.70;0.70;;;;;;;4.52;77.70;98969.19;29395;359;63010;-58
2022/03/19 00:35:50;;;;;;;0.60;0.60;;;;;;;4.53;77.41;98970.84;29395;292;63009;-56
2022/03/19 00:36:23;;;;;;;1.30;1.30;;;;;;;4.52;77.46;98968.34;29394;331;64009;-56
2022/03/19 00:36:56;;;;;;;0.60;0.60;;;;;;;4.49;77.85;98975.00;29395;227;63012;-56
2022/03/19 00:37:27;;;;;;;0.60;0.60;;;;;;;4.48;77.77;98972.50;29395;203;63005;-56
2022/03/19 00:37:59;;;;;;;0.60;0.60;;;;;;;4.45;77.80;98968.38;29395;229;63009;-61
2022/03/19 00:38:31;;;;;;;0.60;0.60;;;;;;;4.43;78.15;98966.91;29395;218;63005;-56
2022/03/19 00:39:02;;;;;;;0.52;0.52;;;;;;;4.40;78.41;98976.22;29394;212;64013;-56
2022/03/19 00:39:37;;;;;;;0.60;0.60;;;;;;;4.39;78.38;98974.56;29395;209;63014;-57
2022/03/19 00:40:10;;;;;;;0.60;0.60;;;;;;;4.37;78.56;98972.06;29395;275;63020;-62
2022/03/19 00:40:43;;;;;;;0.60;0.60;;;;;;;4.36;78.61;98972.25;29395;270;63004;-55
2022/03/19 00:41:14;;;;;;;0.50;0.50;;;;;;;4.35;78.55;98974.13;29396;374;63024;-62
2022/03/19 00:41:48;;;;;;;0.50;0.50;;;;;;;4.35;78.75;98973.28;29396;218;63004;-56
2022/03/19 00:42:22;;;;;;;0.60;0.60;;;;;;;4.35;78.64;98970.59;29396;302;63008;-58
2022/03/19 00:42:53;;;;;;;1.33;1.23;;;;;;;4.49;78.05;98968.78;29396;211;63005;-57
2022/03/19 00:43:25;;;;;;;1.35;1.25;;;;;;;4.57;77.39;98971.28;29395;208;64014;-56
2022/03/19 00:43:56;;;;;;;0.60;0.60;;;;;;;4.57;76.98;98977.47;29396;199;63005;-57
2022/03/19 00:44:28;;;;;;;1.23;1.23;;;;;;;4.54;77.06;98964.44;29396;210;63009;-57
2022/03/19 00:44:59;;;;;;;0.60;0.60;;;;;;;4.50;77.34;98962.38;29395;228;64009;-57
2022/03/19 00:45:31;;;;;;;0.90;0.90;;;;;;;4.46;77.39;98967.34;29396;204;63009;-58
2022/03/19 00:46:03;;;;;;;0.60;0.60;;;;;;;4.50;77.23;98973.97;29396;238;63004;-56
2022/03/19 00:46:38;;;;;;;0.68;0.68;;;;;;;4.62;76.91;98969.63;29395;234;64013;-57
2022/03/19 00:47:09;;;;;;;1.02;1.02;;;;;;;4.65;76.47;98966.53;29396;239;63004;-62
2022/03/19 00:47:40;;;;;;;1.75;1.55;;;;;;;4.63;76.43;98968.59;29396;197;63009;-57
2022/03/19 00:48:12;;;;;;;0.60;0.60;;;;;;;4.59;76.57;98970.03;29396;219;63004;-58
2022/03/19 00:48:43;;;;;;;0.60;0.60;;;;;;;4.56;76.68;98965.06;29396;235;63008;-57
2022/03/19 00:49:15;;;;;;;0.60;0.60;;;;;;;4.52;76.84;98969.19;29396;221;63018;-57
2022/03/19 00:49:46;;;;;;;0.55;0.55;;;;;;;4.49;76.89;98969.63;29396;250;63025;-61
2022/03/19 00:50:17;;;;;;;1.20;1.12;;;;;;;4.46;77.08;98970.03;29396;215;63005;-56
2022/03/19 00:50:49;;;;;;;0.60;0.60;;;;;;;4.43;77.19;98967.75;29395;213;64014;-57
2022/03/19 00:51:20;;;;;;;0.60;0.60;;;;;;;4.41;77.39;98967.13;29396;291;63005;-56
2022/03/19 00:51:52;;;;;;;1.00;1.00;;;;;;;4.39;77.38;98958.41;29396;223;63009;-57
2022/03/19 00:52:23;;;;;;;0.90;0.90;;;;;;;4.38;77.60;98962.13;29395;206;64009;-62
2022/03/19 00:52:54;;;;;;;0.50;0.50;;;;;;;4.44;77.22;98966.72;29396;214;63009;-56
2022/03/19 00:53:27;;;;;;;0.60;0.60;;;;;;;4.45;77.36;98957.63;29396;258;63009;-56
2022/03/19 00:53:59;;;;;;;0.60;0.60;;;;;;;4.49;77.36;98953.50;29396;240;63009;-56
2022/03/19 00:54:31;;;;;;;0.57;0.57;;;;;;;4.49;77.09;98958.03;29396;216;63004;-55
2022/03/19 00:55:04;;;;;;;0.70;0.70;;;;;;;4.48;77.07;98956.37;29396;218;63009;-56
2022/03/19 00:55:35;;;;;;;0.70;0.70;;;;;;;4.42;77.10;98954.50;29396;249;63004;-57
2022/03/19 00:56:07;;;;;;;0.60;0.60;;;;;;;4.40;77.07;98954.69;29396;223;63008;-58
2022/03/19 00:56:39;;;;;;;0.60;0.60;;;;;;;4.38;77.16;98957.59;29396;236;63004;-56
2022/03/19 00:57:10;;;;;;;3.45;3.35;;;;;;;4.37;77.30;98955.09;29395;203;64014;-56
2022/03/19 00:57:44;;;;;;;0.55;0.55;;;;;;;4.36;77.32;98953.44;29396;246;63005;-56
2022/03/19 00:58:16;;;;;;;0.68;0.68;;;;;;;4.36;77.32;98953.44;29396;218;63009;-56
2022/03/19 00:58:47;;;;;;;0.60;0.60;;;;;;;4.33;77.68;98943.09;29396;240;63005;-60
2022/03/19 00:59:19;;;;;;;0.50;0.50;;;;;;;4.31;77.49;98948.69;29396;219;63009;-58
2022/03/19 00:59:50;;;;;;;1.15;1.15;;;;;;;4.30;77.53;98955.09;29396;197;63005;-61
2022/03/19 01:00:26;;;;;;;0.50;0.50;;;;;;;4.29;78.00;98952.59;29395;229;64013;-56
2022/03/19 01:00:58;;;;;;;1.05;1.05;;;;;;;4.30;77.86;98951.56;29395;257;64009;-57
2022/03/19 01:01:30;;;;;;;0.60;0.60;;;;;;;4.31;77.52;98953.22;29396;214;63009;-56
2022/03/19 01:02:01;;;;;;;0.60;0.60;;;;;;;4.30;77.65;98954.25;29396;286;63004;-56
2022/03/19 01:02:32;;;;;;;0.70;0.70;;;;;;;4.31;77.51;98955.91;29396;214;63009;-57
2022/03/19 01:03:04;;;;;;;0.50;0.50;;;;;;;4.35;77.26;98957.16;29396;260;63004;-56
2022/03/19 01:03:35;;;;;;;0.50;0.50;;;;;;;4.37;77.19;98955.09;29396;305;63009;-58
2022/03/19 01:04:09;;;;;;;0.70;0.70;;;;;;;4.38;76.99;98962.97;29396;268;63004;-57
2022/03/19 01:04:41;;;;;;;0.60;0.60;;;;;;;4.34;76.69;98950.97;29396;243;63009;-56
2022/03/19 01:05:15;;;;;;;0.60;0.60;;;;;;;4.33;76.99;98953.84;29396;222;63005;-56
2022/03/19 01:05:47;;;;;;;0.60;0.60;;;;;;;4.30;77.04;98955.09;29396;202;63009;-57
2022/03/19 01:06:19;;;;;;;0.50;0.50;;;;;;;4.27;77.07;98950.09;29395;212;64009;-57
2022/03/19 01:06:50;;;;;;;0.60;0.60;;;;;;;4.27;77.47;98962.72;29396;227;63009;-56
2022/03/19 01:07:22;;;;;;;0.60;0.60;;;;;;;4.27;77.51;98960.03;29396;212;63005;-56
2022/03/19 01:07:55;;;;;;;0.60;0.60;;;;;;;4.26;77.53;98961.06;29396;232;63009;-58
2022/03/19 01:08:30;;;;;;;0.60;0.60;;;;;;;4.25;77.59;98956.72;29395;202;64009;-57
2022/03/19 01:09:03;;;;;;;3.85;2.45;;;;;;;4.28;77.25;98950.94;29396;228;63009;-60
2022/03/19 01:09:35;;;;;;;0.50;0.50;;;;;;;4.24;77.19;98952.38;29396;217;63004;-57
2022/03/19 01:10:07;;;;;;;3.40;1.85;;;;;;;4.20;76.96;98953.81;29396;233;63009;-57
2022/03/19 01:10:40;;;;;;;5.93;5.65;;;;;;;4.13;77.59;98951.13;29396;215;63004;-56
2022/03/19 01:11:15;;;;;;;0.60;0.60;;;;;;;4.23;77.07;98953.41;29396;196;63016;-56
2022/03/19 01:11:47;;;;;;;0.60;0.60;;;;;;;4.23;76.94;98948.03;29395;203;64008;-56
2022/03/19 01:12:19;;;;;;;2.22;2.15;;;;;;;4.23;77.04;98956.09;29396;213;63009;-57
2022/03/19 01:12:54;;;;;;;0.98;0.98;;;;;;;4.21;77.28;98953.59;29396;227;63005;-56
2022/03/19 01:13:27;;;;;;;0.50;0.50;;;;;;;4.22;77.35;98952.56;29396;247;63009;-59
2022/03/19 01:13:59;;;;;;;1.27;1.12;;;;;;;4.31;76.62;98951.38;29396;199;63005;-57
2022/03/19 01:14:31;;;;;;;0.80;0.80;;;;;;;4.33;76.47;98949.31;29396;210;63009;-56
2022/03/19 01:15:05;;;;;;;0.50;0.50;;;;;;;4.33;76.46;98943.09;29396;249;63016;-56
2022/03/19 01:15:37;;;;;;;0.57;0.57;;;;;;;4.30;76.41;98948.87;29396;212;63009;-56
2022/03/19 01:16:10;;;;;;;0.60;0.60;;;;;;;4.29;76.56;98941.84;29395;254;64009;-56
2022/03/19 01:16:41;;;;;;;0.60;0.60;;;;;;;4.29;76.59;98944.53;29396;236;63004;-56
2022/03/19 01:17:14;;;;;;;0.60;0.60;;;;;;;4.29;76.61;98947.22;29396;220;63004;-55
2022/03/19 01:17:46;;;;;;;0.60;0.60;;;;;;;4.27;76.65;98954.66;29395;223;64009;-56
2022/03/19 01:18:17;;;;;;;0.50;0.50;;;;;;;4.26;76.89;98948.44;29396;244;63004;-56
2022/03/19 01:18:49;;;;;;;0.60;0.60;;;;;;;4.25;77.04;98940.59;29395;217;64013;-56
2022/03/19 01:20:16;;;;;;;0.60;0.60;;;;;;;4.24;76.94;98955.06;29396;216;63009;-56
2022/03/19 01:20:50;;;;;;;0.55;0.55;;;;;;;4.24;77.26;98949.69;29396;212;63005;-59
2022/03/19 01:21:21;;;;;;;0.60;0.60;;;;;;;4.29;76.53;98945.34;29396;231;63009;-56
2022/03/19 01:21:55;;;;;;;0.60;0.60;;;;;;;4.30;76.50;98944.34;29396;248;63005;-57
2022/03/19 01:22:28;;;;;;;0.60;0.60;;;;;;;4.32;76.36;98944.97;29396;208;63009;-56
2022/03/19 01:23:00;;;;;;;0.60;0.60;;;;;;;4.27;76.10;98947.41;29396;378;63005;-57
2022/03/19 01:23:32;;;;;;;0.70;0.70;;;;;;;4.25;76.44;98937.91;29395;260;64013;-56
2022/03/19 01:24:06;;;;;;;0.60;0.60;;;;;;;4.22;76.58;98947.19;29397;234;63004;-56
2022/03/19 01:24:37;;;;;;;2.75;1.40;;;;;;;4.23;76.61;98948.03;29397;238;63009;-56
2022/03/19 01:25:10;;;;;;;0.60;0.60;;;;;;;4.25;76.50;98951.34;29397;209;63004;-56
2022/03/19 01:25:43;;;;;;;0.60;0.60;;;;;;;4.24;76.49;98938.94;29397;238;63009;-56
2022/03/19 01:26:15;;;;;;;0.60;0.60;;;;;;;4.23;76.63;98942.66;29397;215;63004;-59
2022/03/19 01:26:51;;;;;;;0.60;0.60;;;;;;;4.21;76.68;98944.72;29397;231;63008;-56
2022/03/19 01:27:28;;;;;;;0.60;0.60;;;;;;;4.18;77.17;98945.09;29397;219;63005;-60
2022/03/19 01:28:00;;;;;;;0.60;0.60;;;;;;;4.15;77.12;98950.91;29397;218;63009;-56
2022/03/19 01:28:35;;;;;;;0.60;0.60;;;;;;;4.12;77.55;98945.94;29397;203;63005;-56
2022/03/19 01:29:23;;;;;;;0.80;0.80;;;;;;;4.09;77.59;98938.28;29396;229;64013;-56
2022/03/19 01:29:57;;;;;;;0.60;0.60;;;;;;;4.09;77.84;98946.34;29397;288;63005;-61
2022/03/19 01:30:28;;;;;;;0.60;0.60;;;;;;;4.08;77.85;98945.50;29397;269;63009;-56
2022/03/19 01:31:04;;;;;;;0.60;0.60;;;;;;;4.05;78.07;98940.53;29397;265;63005;-55
2022/03/19 01:31:35;;;;;;;4.47;4.35;;;;;;;4.04;78.09;98945.09;29397;224;63013;-56
2022/03/19 01:32:11;;;;;;;0.60;0.60;;;;;;;4.02;78.00;98944.44;29397;212;63004;-57
2022/03/19 01:32:45;;;;;;;1.15;1.15;;;;;;;4.09;77.87;98949.03;29397;212;63009;-57
2022/03/19 01:33:17;;;;;;;0.60;0.60;;;;;;;4.12;77.17;98949.47;29397;227;63004;-56
2022/03/19 01:33:49;;;;;;;0.50;0.50;;;;;;;4.12;77.15;98946.78;29397;197;63009;-56
2022/03/19 01:34:21;;;;;;;0.60;0.60;;;;;;;4.12;76.95;98940.56;29396;322;64008;-57
2022/03/19 01:35:04;;;;;;;0.60;0.60;;;;;;;4.10;77.13;98942.63;29441;205;63012;-56
2022/03/19 01:35:36;;;;;;;0.82;0.82;;;;;;;4.03;76.89;98942.59;29374;271;64009;-57
2022/03/19 01:36:08;;;;;;;0.88;0.88;;;;;;;3.97;76.75;98938.84;29397;221;63009;-56
2022/03/19 01:36:40;;;;;;;0.60;0.60;;;;;;;3.99;77.32;98941.34;29397;307;63005;-60
2022/03/19 01:37:13;;;;;;;0.50;0.50;;;;;;;3.98;77.40;98948.56;29396;213;63009;-57
2022/03/19 01:37:45;;;;;;;0.60;0.60;;;;;;;3.99;77.46;98947.53;29396;228;63010;-56
2022/03/19 01:38:17;;;;;;;0.60;0.60;;;;;;;3.98;77.50;98940.50;29396;207;63009;-55
2022/03/19 01:38:49;;;;;;;0.70;0.70;;;;;;;3.99;77.56;98941.34;29396;202;63005;-57
2022/03/19 01:39:23;;;;;;;0.60;0.60;;;;;;;4.01;77.63;98934.75;29396;271;63009;-56
2022/03/19 01:39:55;;;;;;;0.60;0.60;;;;;;;4.00;77.69;98941.13;29396;214;63004;-55
2022/03/19 01:40:27;;;;;;;0.60;0.60;;;;;;;3.99;77.52;98935.97;29396;204;63009;-57
2022/03/19 01:41:00;;;;;;;1.25;1.23;;;;;;;3.98;77.73;98939.69;29395;234;64023;-56
2022/03/19 01:41:39;;;;;;;0.60;0.60;;;;;;;3.99;77.70;98944.03;29396;226;63008;-56
2022/03/19 01:42:10;;;;;;;1.40;1.30;;;;;;;4.02;77.43;98941.78;29396;199;63004;-56
2022/03/19 01:42:44;;;;;;;0.60;0.60;;;;;;;4.03;77.21;98938.06;29396;253;63009;-56
2022/03/19 01:43:16;;;;;;;0.60;0.60;;;;;;;4.03;77.17;98940.75;29396;206;63005;-56
2022/03/19 01:43:47;;;;;;;0.60;0.60;;;;;;;4.01;77.43;98945.47;29396;315;63009;-56
2022/03/19 01:44:20;;;;;;;0.60;0.60;;;;;;;4.01;77.80;98945.47;29396;240;63011;-56
2022/03/19 01:44:53;;;;;;;0.60;0.60;;;;;;;3.98;77.68;98939.69;29396;214;63009;-56
2022/03/19 01:45:25;;;;;;;1.30;1.30;;;;;;;3.97;77.77;98941.53;29395;236;64009;-56
2022/03/19 01:45:59;;;;;;;0.50;0.50;;;;;;;3.94;78.01;98939.25;29396;233;63009;-56
2022/03/19 01:46:50;;;;;;;0.60;0.60;;;;;;;3.92;77.81;98946.69;29396;226;63004;-60
2022/03/19 01:47:23;;;;;;;2.08;2.05;;;;;;;3.90;78.05;98937.16;29417;238;64013;-57
2022/03/19 01:47:56;;;;;;;0.60;0.60;;;;;;;3.90;77.92;98940.69;29396;227;63004;-55
2022/03/19 01:48:29;;;;;;;0.60;0.60;;;;;;;3.90;77.88;98935.31;29396;196;63008;-57
2022/03/19 01:49:01;;;;;;;0.60;0.60;;;;;;;3.90;78.04;98937.16;29396;212;63004;-56
2022/03/19 01:49:33;;;;;;;1.87;1.80;;;;;;;3.89;77.82;98930.97;29396;226;63008;-60
2022/03/19 01:50:07;;;;;;;1.23;1.23;;;;;;;3.89;78.06;98936.34;29395;234;64009;-56
2022/03/19 01:50:38;;;;;;;0.62;0.62;;;;;;;3.90;77.45;98938.00;29396;218;63009;-57
2022/03/19 01:51:10;;;;;;;0.60;0.60;;;;;;;3.89;77.46;98933.66;29396;206;63005;-62
2022/03/19 01:51:45;;;;;;;0.60;0.60;;;;;;;3.92;77.16;98935.94;29396;216;63009;-57
2022/03/19 01:52:17;;;;;;;0.60;0.60;;;;;;;3.92;76.97;98935.94;29396;275;63005;-56
2022/03/19 01:52:50;;;;;;;0.60;0.60;;;;;;;3.94;77.42;98936.56;29397;212;63014;-56
2022/03/19 01:53:21;;;;;;;0.70;0.70;;;;;;;3.98;77.24;98929.75;29396;234;63004;-55
2022/03/19 01:53:53;;;;;;;0.60;0.60;;;;;;;3.99;77.11;98930.59;29395;291;64004;-62
2022/03/19 01:54:32;;;;;;;0.60;0.60;;;;;;;4.00;77.10;98932.25;29396;316;63004;-56
2022/03/19 01:55:06;;;;;;;0.60;0.60;;;;;;;4.00;76.89;98927.72;29396;198;63009;-57
2022/03/19 01:55:38;;;;;;;0.60;0.60;;;;;;;3.98;77.07;98929.75;29396;237;63005;-57
2022/03/19 01:56:10;;;;;;;0.60;0.60;;;;;;;3.96;77.11;98929.13;29395;222;64013;-56
2022/03/19 01:56:44;;;;;;;0.65;0.65;;;;;;;3.96;77.00;98931.81;29396;203;63010;-56
2022/03/19 01:57:27;;;;;;;0.50;0.50;;;;;;;3.96;77.01;98925.63;29396;227;63009;-59
2022/03/19 01:58:01;;;;;;;0.60;0.60;;;;;;;3.96;77.12;98931.81;29396;251;63005;-57
2022/03/19 01:58:33;;;;;;;0.80;0.80;;;;;;;3.94;77.30;98925.81;29396;226;63009;-55
2022/03/19 01:59:04;;;;;;;0.60;0.60;;;;;;;3.92;77.20;98927.88;29396;229;63005;-56
2022/03/19 01:59:37;;;;;;;0.50;0.50;;;;;;;3.92;77.20;98935.94;29396;280;63009;-56
2022/03/19 02:00:14;;;;;;;0.60;0.60;;;;;;;3.91;77.36;98926.22;29396;209;63018;-59
2022/03/19 02:00:45;;;;;;;0.57;0.57;;;;;;;3.91;77.13;98922.69;29395;198;64013;-56
2022/03/19 02:01:17;;;;;;;6.12;5.85;;;;;;;3.92;77.33;98932.41;29396;233;63004;-57
2022/03/19 02:01:51;;;;;;;0.60;0.60;;;;;;;3.93;76.91;98926.00;29396;276;63009;-56
2022/03/19 02:02:25;;;;;;;0.60;0.60;;;;;;;3.93;76.78;98921.47;29396;225;63004;-60
2022/03/19 02:02:57;;;;;;;0.85;0.85;;;;;;;3.94;76.60;98927.69;29396;295;63009;-58
2022/03/19 02:03:29;;;;;;;0.50;0.50;;;;;;;3.92;76.51;98919.81;29373;313;64008;-57
2022/03/19 02:04:02;;;;;;;2.15;2.05;;;;;;;3.92;76.56;98924.34;29396;202;63023;-56
2022/03/19 02:04:38;;;;;;;0.60;0.60;;;;;;;3.90;76.85;98916.50;29396;313;63005;-56
2022/03/19 02:05:14;;;;;;;0.60;0.60;;;;;;;3.91;76.72;98926.22;29396;233;63018;-56
2022/03/19 02:05:48;;;;;;;0.60;0.60;;;;;;;3.90;76.90;98927.25;29396;225;63005;-56
2022/03/19 02:06:30;;;;;;;0.70;0.70;;;;;;;3.90;76.95;98921.88;29395;210;64013;-55
2022/03/19 02:07:02;;;;;;;0.60;0.60;;;;;;;3.91;77.01;98923.53;29396;224;63005;-57
2022/03/19 02:07:36;;;;;;;0.62;0.62;;;;;;;3.88;76.29;98918.56;29396;214;63009;-66
2022/03/19 02:08:09;;;;;;;1.60;1.58;;;;;;;3.90;76.67;98921.88;29396;220;63014;-57
2022/03/19 02:08:44;;;;;;;0.60;0.60;;;;;;;3.92;76.41;98919.00;29396;208;63016;-55
2022/03/19 02:09:16;;;;;;;0.70;0.70;;;;;;;3.95;76.67;98922.09;29396;208;63004;-57
2022/03/19 02:09:47;;;;;;;0.70;0.70;;;;;;;3.96;76.47;98925.63;29396;210;63009;-56
2022/03/19 02:10:20;;;;;;;0.60;0.60;;;;;;;3.96;76.41;98923.75;29396;235;63004;-60
2022/03/19 02:10:52;;;;;;;0.60;0.60;;;;;;;3.99;76.37;98919.84;29396;225;63008;-57
2022/03/19 02:11:26;;;;;;;0.57;0.57;;;;;;;3.98;76.25;98919.03;29395;207;64008;-56
2022/03/19 02:11:59;;;;;;;0.60;0.60;;;;;;;3.98;76.13;98921.72;29396;330;63009;-56
2022/03/19 02:12:31;;;;;;;0.60;0.60;;;;;;;3.98;76.46;98918.19;29396;214;63005;-56
2022/03/19 02:13:03;;;;;;;0.60;0.60;;;;;;;3.97;76.26;98921.91;29396;215;63010;-56
2022/03/19 02:13:36;;;;;;;0.60;0.60;;;;;;;3.95;76.59;98922.09;29396;233;63005;-56
2022/03/19 02:14:07;;;;;;;0.60;0.60;;;;;;;3.93;76.42;98921.47;29396;233;63009;-63
2022/03/19 02:14:40;;;;;;;0.60;0.60;;;;;;;3.93;76.50;98918.78;29395;214;64009;-56
2022/03/19 02:15:14;;;;;;;0.60;0.60;;;;;;;3.93;76.53;98921.47;29396;221;63009;-56
2022/03/19 02:15:46;;;;;;;0.50;0.50;;;;;;;3.94;76.24;98916.94;29396;240;63019;-60
2022/03/19 02:16:17;;;;;;;0.60;0.60;;;;;;;3.94;76.39;98916.94;29396;206;63009;-56
2022/03/19 02:16:50;;;;;;;0.60;0.60;;;;;;;3.92;76.34;98919.81;29396;216;63004;-55
2022/03/19 02:17:23;;;;;;;0.60;0.60;;;;;;;3.90;76.90;98916.50;29396;202;63009;-55
2022/03/19 02:17:54;;;;;;;0.60;0.60;;;;;;;3.90;76.90;98921.03;29396;210;63004;-56
2022/03/19 02:18:26;;;;;;;0.60;0.60;;;;;;;3.89;77.07;98916.69;29395;215;64013;-56
2022/03/19 02:18:59;;;;;;;0.60;0.60;;;;;;;3.87;76.64;98922.28;29395;208;64002;-56
2022/03/19 02:19:32;;;;;;;0.60;0.60;;;;;;;3.88;76.70;98923.94;29396;214;63009;-56
2022/03/19 02:20:05;;;;;;;0.60;0.60;;;;;;;3.89;76.67;98925.59;29396;197;63005;-56
2022/03/19 02:20:37;;;;;;;0.60;0.60;;;;;;;3.90;76.40;98927.25;29396;209;63009;-56
2022/03/19 02:21:12;;;;;;;0.50;0.50;;;;;;;3.88;76.29;98918.56;29395;196;64009;-58
2022/03/19 02:21:49;;;;;;;0.68;0.68;;;;;;;3.89;76.50;98919.37;29395;234;64013;-56
2022/03/19 02:22:22;;;;;;;0.60;0.60;;;;;;;3.92;76.41;98919.00;29396;211;63005;-57
2022/03/19 02:26:10;;;;;;;0.60;0.60;;;;;;;3.87;75.94;98916.06;29395;236;64008;-57
2022/03/19 02:26:45;;;;;;;0.60;0.60;;;;;;;3.85;76.11;98916.28;29396;223;63008;-56
2022/03/19 02:27:17;;;;;;;0.62;0.62;;;;;;;3.85;76.20;98918.13;29395;222;64009;-56
2022/03/19 02:27:48;;;;;;;0.60;0.60;;;;;;;3.85;76.04;98921.66;29397;220;63009;-57
2022/03/19 02:28:19;;;;;;;0.60;0.60;;;;;;;3.85;76.26;98923.50;29397;254;63005;-59
2022/03/19 02:28:50;;;;;;;0.60;0.60;;;;;;;3.84;76.48;98917.31;29397;236;63009;-61
2022/03/19 02:29:28;;;;;;;0.60;0.60;;;;;;;3.82;76.45;98924.72;29395;225;64009;-55
2022/03/19 02:30:00;;;;;;;0.60;0.60;;;;;;;3.81;76.78;98923.06;29397;198;63009;-56
2022/03/19 02:30:32;;;;;;;0.60;0.60;;;;;;;3.80;76.62;98916.06;29394;278;64005;-56
2022/03/19 02:31:03;;;;;;;0.60;0.60;;;;;;;3.80;76.93;98916.06;29397;216;63009;-56
2022/03/19 02:31:38;;;;;;;0.60;0.60;;;;;;;3.80;76.79;98916.06;29395;218;63004;-56
2022/03/19 02:32:11;;;;;;;0.60;0.60;;;;;;;3.78;76.89;98918.13;29394;232;64013;-60
2022/03/19 02:32:45;;;;;;;0.60;0.60;;;;;;;3.77;76.69;98926.37;29395;244;63004;-56
2022/03/19 02:33:19;;;;;;;0.60;0.60;;;;;;;3.77;76.76;98915.62;29396;233;63009;-56
2022/03/19 02:33:50;;;;;;;0.82;0.82;;;;;;;3.76;76.45;98917.50;29396;206;63004;-55
2022/03/19 02:34:23;;;;;;;0.60;0.60;;;;;;;3.75;76.37;98915.84;29394;220;63009;-56
2022/03/19 02:34:55;;;;;;;0.60;0.60;;;;;;;3.74;76.44;98921.41;29395;203;63005;-56
2022/03/19 02:35:27;;;;;;;0.50;0.50;;;;;;;3.72;76.64;98913.56;29395;223;63009;-57
2022/03/19 02:35:58;;;;;;;0.60;0.60;;;;;;;3.74;76.41;98911.50;29395;230;63005;-56
2022/03/19 02:36:30;;;;;;;0.60;0.60;;;;;;;3.75;76.45;98915.00;29395;227;63009;-56
2022/03/19 02:37:03;;;;;;;0.60;0.60;;;;;;;3.75;76.46;98912.31;29395;286;63005;-57
2022/03/19 02:37:42;;;;;;;0.60;0.60;;;;;;;3.75;76.36;98902.41;29393;224;64009;-56
2022/03/19 02:38:13;;;;;;;0.60;0.60;;;;;;;3.76;76.60;98912.13;29395;234;63008;-56
2022/03/19 02:38:45;;;;;;;0.60;0.60;;;;;;;3.75;76.52;98907.78;29395;209;63009;-56
2022/03/19 02:39:28;;;;;;;0.50;0.50;;;;;;;3.75;76.83;98912.31;29395;222;63000;-56
2022/03/19 02:40:01;;;;;;;0.60;0.60;;;;;;;3.73;76.82;98898.28;29395;317;63016;-57
2022/03/19 02:40:33;;;;;;;0.90;0.90;;;;;;;3.72;77.11;98902.81;29395;223;63004;-56
2022/03/19 02:41:06;;;;;;;0.60;0.60;;;;;;;3.79;76.17;98898.31;29393;225;64013;-56
2022/03/19 02:41:46;;;;;;;0.50;0.50;;;;;;;3.80;76.29;98908.00;29395;240;63004;-56
2022/03/19 02:42:20;;;;;;;1.77;1.67;;;;;;;3.80;75.84;98905.34;29395;206;63009;-57
2022/03/19 02:42:56;;;;;;;0.70;0.70;;;;;;;3.78;76.08;98901.19;29395;211;63005;-60